Aérodrome :
LOGIN :

S'inscrire | Disclaimer

   EN    FR    IT 

 










Légende :    VFR   VFR Marginal   IFR   IFR Intensif   IFR Très Intensif
Visi : 
Plafond : 
>= 8 km
>= 3000ft
5 à 8 km
1000 à 3000 ft
1500m à 5 km
500 à 1000 ft
800 à 1500m
200 à 500 ft
< 800m
< 200 ft
Symboles :   Orages  Brouillard  Fortes neiges  Fortes précipitations  Vent > 20 kt
SIGMETs :   Divers  Orages  Givrage  Turbulence  Onde Orograph.  Cendres Volcan.







- Altitude de l'aérodrome : 1197 ft
- Code IATA : SPM


ETAD - Spangdahlem Ab

DERNIER METAR :
  • 241956Z AUTO 12008KT 9999 SCT120 08/08 A2971 RMK AO2 RAE21RAB30E39 SLP051 P0000 T00810080 $

METARs EXPIRÉS :
  • 241939Z AUTO 14009KT 9999 FEW038 08/08 A2972 RMK AO2 RAE21RAB30E39 SLP056 $
  • 241930Z AUTO 16013KT 9999 -RA FEW038 08/08 A2973 RMK AO2 RAE21RAB30 SLP059 $
  • 241921Z AUTO 15008KT 9999 FEW035 08/08 A2972 RMK AO2 RAE21 PRESRR SLP056 $
  • 241856Z AUTO 15007KT 9999 -RA BKN035 09/08 A2971 RMK AO2 SLP052 P0013 T00850082 $
  • 241756Z AUTO 18011G19KT 9999 RA BR FEW020 BKN030 OVC035 09/08 A2972 RMK AO2 RAE11RAB15 SLP057 P0020 60054 T00920081 10219 20092 51055 $
  • 241733Z AUTO 20007KT 9999 -RA FEW019 SCT027 OVC035 09/08 A2972 RMK AO2 RAE11RAB15 PRESRR SLP057 $
  • 241718Z AUTO 22009G18KT 9000 RA FEW014 SCT024 SCT030 OVC040 10/09 A2970 RMK AO2 RAE11RAB15 SLP050 $

TAF TAF ETAD
Valide du 24 à 20h jusqu'au 26 à 02h UTC


241956Z 2420/2602 13009KT 9000 -SHRA BKN030 BKN120 QNH2971INS
BECMG 2420/2421 19009KT 9999 NSW SCT035 QNH2971INS
BECMG 2504/2505 19015G25KT 9999 BKN060 QNH2975INS
TEMPO 2504/2508 19022G30KT
BECMG 2514/2515 19015KT 9000 -SHRA BKN040 QNH2975INS
BECMG 2517/2518 23012KT 9000 -SHRA BKN015 BKN040 QNH2976INS TX19/2515Z TN08/2504Z LAST NO AMDS AFT 2420 NEXT 2504
Pas de NOTAMs connus pour ce terrain.
1 SIGMET publié pour la FIR Langen (EDGG) :
 
Turbulence forte
EDGG SIGMET 8 VALID 241900/242200 EDZF
EDGG LANGEN FIR SEV TURB FCST WI N4954 E00812 - N4835 E00824 - N4752 E00730 - N4853 E00719 - N4926 E00620 - N4954 E00812 SFC/FL060 STNR WKN=



MET'MAP, la Météo Aéronautique d'un coup d'oeil ! - Copyright ORBIFLY Décembre 2007 - Disclaimer

ORBIFLY MET'MAP TEAM :

Programmation & Développement : Alexandra Zaïnal
Conception & Développement : Baudouin d'Aumeries
Co-Programmation & Développement : Marc-Olivier Méhu
Soutien technique & logistique : Manuel Goepfert

Contact : metmap@orbifly.com




SOURCES & CREDITS :

   NOAA